Talmadge, Maine
Current Conditions -  °F | °C
As of 11:53 PM on Monday 20 Oct 2014 (Local Time) from KHUL Reporting Station
Clear Clear  
Wind Chill: 28°   Ceiling: Unl
Heat Index: 33°   Visibility: 10mi
Dew Point: 27°   Wind: 6mph
Humidity: 78%   Direction: 200°SSW
Pressure: 29.96"   Gusts: NA
Location:  45.3759°N, 67.6018°W
Report Text: KHUL 210353Z AUTO 20005KT 10SM CLR 01/M03 A2996 RMK AO2 SLP152 T00061028
Loading
Personal Weather Stations






























Interactive Weather Map
Tropical Storm Tracking
New forecast layout! Learn more

10-Day Weather Forecast

Advertisements
Track Severe Weather on mobile